sensor_id;sensor_type;location;lat;lon;timestamp;P1;durP1;ratioP1;P2;durP2;ratioP2
75148;SDS011;63724;47.470;19.166;2023-04-25T00:01:31;1.77;;;1.10;;
75148;SDS011;63724;47.470;19.166;2023-04-25T00:04:35;1.23;;;1.13;;
75148;SDS011;63724;47.470;19.166;2023-04-25T00:07:40;4.32;;;1.20;;
75148;SDS011;63724;47.470;19.166;2023-04-25T00:10:44;1.02;;;0.82;;
75148;SDS011;63724;47.470;19.166;2023-04-25T00:13:47;2.05;;;0.75;;
75148;SDS011;63724;47.470;19.166;2023-04-25T00:16:50;1.10;;;0.83;;
75148;SDS011;63724;47.470;19.166;2023-04-25T00:19:54;2.53;;;1.17;;
75148;SDS011;63724;47.470;19.166;2023-04-25T00:22:56;1.65;;;1.02;;
75148;SDS011;63724;47.470;19.166;2023-04-25T00:25:59;1.48;;;0.90;;
75148;SDS011;63724;47.470;19.166;2023-04-25T00:29:01;1.00;;;0.90;;
75148;SDS011;63724;47.470;19.166;2023-04-25T00:32:04;2.33;;;0.90;;
75148;SDS011;63724;47.470;19.166;2023-04-25T00:35:06;1.77;;;0.80;;
75148;SDS011;63724;47.470;19.166;2023-04-25T00:38:09;1.38;;;1.10;;
75148;SDS011;63724;47.470;19.166;2023-04-25T00:41:11;2.15;;;1.35;;
75148;SDS011;63724;47.470;19.166;2023-04-25T00:44:14;1.20;;;1.00;;
75148;SDS011;63724;47.470;19.166;2023-04-25T00:47:18;1.97;;;1.13;;
75148;SDS011;63724;47.470;19.166;2023-04-25T00:50:21;1.33;;;1.03;;
75148;SDS011;63724;47.470;19.166;2023-04-25T00:53:24;1.30;;;1.20;;
75148;SDS011;63724;47.470;19.166;2023-04-25T00:56:28;1.40;;;1.30;;
75148;SDS011;63724;47.470;19.166;2023-04-25T00:59:30;1.40;;;1.00;;
75148;SDS011;63724;47.470;19.166;2023-04-25T01:02:33;1.23;;;1.13;;
75148;SDS011;63724;47.470;19.166;2023-04-25T01:05:37;2.00;;;1.23;;
75148;SDS011;63724;47.470;19.166;2023-04-25T01:08:40;1.60;;;1.15;;
75148;SDS011;63724;47.470;19.166;2023-04-25T01:11:42;1.40;;;1.30;;
75148;SDS011;63724;47.470;19.166;2023-04-25T01:14:45;1.67;;;1.10;;
75148;SDS011;63724;47.470;19.166;2023-04-25T01:17:48;4.17;;;1.50;;
75148;SDS011;63724;47.470;19.166;2023-04-25T01:20:51;2.03;;;1.50;;
75148;SDS011;63724;47.470;19.166;2023-04-25T01:23:55;2.53;;;1.58;;
75148;SDS011;63724;47.470;19.166;2023-04-25T01:26:59;2.60;;;1.52;;
75148;SDS011;63724;47.470;19.166;2023-04-25T01:30:02;2.47;;;1.65;;
75148;SDS011;63724;47.470;19.166;2023-04-25T01:33:06;1.43;;;1.30;;
75148;SDS011;63724;47.470;19.166;2023-04-25T01:36:10;1.60;;;1.50;;
75148;SDS011;63724;47.470;19.166;2023-04-25T01:39:12;2.92;;;1.60;;
75148;SDS011;63724;47.470;19.166;2023-04-25T01:42:15;2.80;;;1.40;;
75148;SDS011;63724;47.470;19.166;2023-04-25T01:45:17;4.88;;;1.80;;
75148;SDS011;63724;47.470;19.166;2023-04-25T01:48:20;2.00;;;1.80;;
75148;SDS011;63724;47.470;19.166;2023-04-25T01:51:22;1.97;;;1.67;;
75148;SDS011;63724;47.470;19.166;2023-04-25T01:54:24;2.42;;;1.75;;
75148;SDS011;63724;47.470;19.166;2023-04-25T01:57:27;3.40;;;2.10;;
75148;SDS011;63724;47.470;19.166;2023-04-25T02:00:29;2.85;;;1.50;;
75148;SDS011;63724;47.470;19.166;2023-04-25T02:03:32;2.60;;;1.43;;
75148;SDS011;63724;47.470;19.166;2023-04-25T02:06:37;1.77;;;1.67;;
75148;SDS011;63724;47.470;19.166;2023-04-25T02:09:41;2.13;;;1.73;;
75148;SDS011;63724;47.470;19.166;2023-04-25T02:12:45;2.35;;;1.50;;
75148;SDS011;63724;47.470;19.166;2023-04-25T02:15:48;2.45;;;1.83;;
75148;SDS011;63724;47.470;19.166;2023-04-25T02:18:53;2.67;;;2.00;;
75148;SDS011;63724;47.470;19.166;2023-04-25T02:21:55;2.03;;;1.60;;
75148;SDS011;63724;47.470;19.166;2023-04-25T02:24:59;2.00;;;1.80;;
75148;SDS011;63724;47.470;19.166;2023-04-25T02:28:02;3.95;;;1.52;;
75148;SDS011;63724;47.470;19.166;2023-04-25T02:31:05;1.80;;;1.55;;
75148;SDS011;63724;47.470;19.166;2023-04-25T02:34:07;1.97;;;1.70;;
75148;SDS011;63724;47.470;19.166;2023-04-25T02:37:12;3.60;;;1.50;;
75148;SDS011;63724;47.470;19.166;2023-04-25T02:40:14;2.85;;;1.80;;
75148;SDS011;63724;47.470;19.166;2023-04-25T02:43:16;1.92;;;1.40;;
75148;SDS011;63724;47.470;19.166;2023-04-25T02:46:19;2.08;;;1.60;;
75148;SDS011;63724;47.470;19.166;2023-04-25T02:49:38;1.50;;;1.40;;
75148;SDS011;63724;47.470;19.166;2023-04-25T02:52:41;1.90;;;1.30;;
75148;SDS011;63724;47.470;19.166;2023-04-25T02:55:54;2.78;;;1.27;;
75148;SDS011;63724;47.470;19.166;2023-04-25T02:59:00;1.52;;;1.00;;
75148;SDS011;63724;47.470;19.166;2023-04-25T03:02:03;1.55;;;1.00;;
75148;SDS011;63724;47.470;19.166;2023-04-25T03:05:05;1.40;;;1.00;;
75148;SDS011;63724;47.470;19.166;2023-04-25T03:08:10;1.30;;;1.00;;
75148;SDS011;63724;47.470;19.166;2023-04-25T03:11:13;1.33;;;0.90;;
75148;SDS011;63724;47.470;19.166;2023-04-25T03:14:16;0.93;;;0.82;;
75148;SDS011;63724;47.470;19.166;2023-04-25T03:17:18;1.00;;;0.90;;
75148;SDS011;63724;47.470;19.166;2023-04-25T03:20:21;1.60;;;1.20;;
75148;SDS011;63724;47.470;19.166;2023-04-25T03:23:23;1.57;;;0.90;;
75148;SDS011;63724;47.470;19.166;2023-04-25T03:26:25;2.50;;;1.45;;
75148;SDS011;63724;47.470;19.166;2023-04-25T03:29:28;3.85;;;2.72;;
75148;SDS011;63724;47.470;19.166;2023-04-25T03:32:31;9.85;;;2.00;;
75148;SDS011;63724;47.470;19.166;2023-04-25T03:35:34;2.27;;;1.60;;
75148;SDS011;63724;47.470;19.166;2023-04-25T03:38:36;3.43;;;1.93;;
75148;SDS011;63724;47.470;19.166;2023-04-25T03:41:40;1.90;;;1.60;;
75148;SDS011;63724;47.470;19.166;2023-04-25T03:44:47;3.10;;;1.30;;
75148;SDS011;63724;47.470;19.166;2023-04-25T03:47:50;1.98;;;1.20;;
75148;SDS011;63724;47.470;19.166;2023-04-25T03:50:53;1.77;;;1.10;;
75148;SDS011;63724;47.470;19.166;2023-04-25T03:53:56;2.17;;;1.47;;
75148;SDS011;63724;47.470;19.166;2023-04-25T03:57:17;9.45;;;5.00;;
75148;SDS011;63724;47.470;19.166;2023-04-25T04:00:19;1.92;;;1.60;;
75148;SDS011;63724;47.470;19.166;2023-04-25T04:03:26;2.00;;;1.40;;
75148;SDS011;63724;47.470;19.166;2023-04-25T04:06:29;3.73;;;1.70;;
75148;SDS011;63724;47.470;19.166;2023-04-25T04:09:38;1.90;;;1.50;;
75148;SDS011;63724;47.470;19.166;2023-04-25T04:12:49;1.73;;;1.38;;
75148;SDS011;63724;47.470;19.166;2023-04-25T04:15:52;2.75;;;1.33;;
75148;SDS011;63724;47.470;19.166;2023-04-25T04:18:54;2.60;;;1.58;;
75148;SDS011;63724;47.470;19.166;2023-04-25T04:21:56;1.60;;;1.40;;
75148;SDS011;63724;47.470;19.166;2023-04-25T04:24:59;1.27;;;1.17;;
75148;SDS011;63724;47.470;19.166;2023-04-25T04:28:20;2.53;;;1.35;;
75148;SDS011;63724;47.470;19.166;2023-04-25T04:31:34;3.50;;;1.20;;
75148;SDS011;63724;47.470;19.166;2023-04-25T04:34:39;2.22;;;1.60;;
75148;SDS011;63724;47.470;19.166;2023-04-25T04:37:44;2.87;;;1.67;;
75148;SDS011;63724;47.470;19.166;2023-04-25T04:40:48;1.60;;;1.20;;
75148;SDS011;63724;47.470;19.166;2023-04-25T04:44:00;4.65;;;1.95;;
75148;SDS011;63724;47.470;19.166;2023-04-25T04:47:13;2.25;;;1.80;;
75148;SDS011;63724;47.470;19.166;2023-04-25T04:50:34;3.28;;;1.88;;
75148;SDS011;63724;47.470;19.166;2023-04-25T04:53:40;3.37;;;1.80;;
75148;SDS011;63724;47.470;19.166;2023-04-25T04:57:01;3.67;;;1.50;;
75148;SDS011;63724;47.470;19.166;2023-04-25T05:00:13;3.58;;;2.00;;
75148;SDS011;63724;47.470;19.166;2023-04-25T05:03:17;5.35;;;1.63;;
75148;SDS011;63724;47.470;19.166;2023-04-25T05:06:52;3.38;;;1.40;;
75148;SDS011;63724;47.470;19.166;2023-04-25T05:10:18;2.67;;;1.70;;
75148;SDS011;63724;47.470;19.166;2023-04-25T05:13:39;8.67;;;1.97;;
75148;SDS011;63724;47.470;19.166;2023-04-25T05:17:00;2.22;;;1.60;;
75148;SDS011;63724;47.470;19.166;2023-04-25T05:20:12;3.47;;;1.80;;
75148;SDS011;63724;47.470;19.166;2023-04-25T05:23:42;2.55;;;1.83;;
75148;SDS011;63724;47.470;19.166;2023-04-25T05:27:19;3.90;;;1.40;;
75148;SDS011;63724;47.470;19.166;2023-04-25T05:30:41;4.10;;;1.50;;
75148;SDS011;63724;47.470;19.166;2023-04-25T05:33:51;3.92;;;1.63;;
75148;SDS011;63724;47.470;19.166;2023-04-25T05:36:55;3.67;;;2.08;;
75148;SDS011;63724;47.470;19.166;2023-04-25T05:39:58;4.43;;;1.60;;
75148;SDS011;63724;47.470;19.166;2023-04-25T05:43:20;1.77;;;1.53;;
75148;SDS011;63724;47.470;19.166;2023-04-25T05:46:43;2.07;;;1.47;;
75148;SDS011;63724;47.470;19.166;2023-04-25T05:50:04;1.92;;;1.55;;
75148;SDS011;63724;47.470;19.166;2023-04-25T05:53:45;6.32;;;1.83;;
75148;SDS011;63724;47.470;19.166;2023-04-25T05:56:49;3.60;;;1.63;;
75148;SDS011;63724;47.470;19.166;2023-04-25T05:59:52;7.13;;;2.07;;
75148;SDS011;63724;47.470;19.166;2023-04-25T06:02:55;5.33;;;1.80;;
75148;SDS011;63724;47.470;19.166;2023-04-25T06:05:58;3.85;;;1.70;;
75148;SDS011;63724;47.470;19.166;2023-04-25T06:09:00;3.33;;;1.63;;
75148;SDS011;63724;47.470;19.166;2023-04-25T06:12:05;2.63;;;1.60;;
75148;SDS011;63724;47.470;19.166;2023-04-25T06:15:09;4.60;;;2.10;;
75148;SDS011;63724;47.470;19.166;2023-04-25T06:18:29;3.10;;;2.10;;
75148;SDS011;63724;47.470;19.166;2023-04-25T06:21:32;8.98;;;3.85;;
75148;SDS011;63724;47.470;19.166;2023-04-25T06:24:34;4.82;;;2.30;;
75148;SDS011;63724;47.470;19.166;2023-04-25T06:27:38;3.05;;;2.33;;
75148;SDS011;63724;47.470;19.166;2023-04-25T06:30:41;5.07;;;1.90;;
75148;SDS011;63724;47.470;19.166;2023-04-25T06:33:47;3.40;;;2.40;;
75148;SDS011;63724;47.470;19.166;2023-04-25T06:36:51;4.28;;;2.90;;
75148;SDS011;63724;47.470;19.166;2023-04-25T06:39:53;4.50;;;2.70;;
75148;SDS011;63724;47.470;19.166;2023-04-25T06:42:55;3.58;;;2.28;;
75148;SDS011;63724;47.470;19.166;2023-04-25T06:46:21;4.57;;;2.30;;
75148;SDS011;63724;47.470;19.166;2023-04-25T06:49:24;3.03;;;2.20;;
75148;SDS011;63724;47.470;19.166;2023-04-25T06:52:26;4.47;;;2.55;;
75148;SDS011;63724;47.470;19.166;2023-04-25T06:55:29;4.50;;;2.58;;
75148;SDS011;63724;47.470;19.166;2023-04-25T06:58:58;3.22;;;2.80;;
75148;SDS011;63724;47.470;19.166;2023-04-25T07:02:05;3.17;;;2.43;;
75148;SDS011;63724;47.470;19.166;2023-04-25T07:05:08;4.53;;;3.10;;
75148;SDS011;63724;47.470;19.166;2023-04-25T07:08:11;3.90;;;2.80;;
75148;SDS011;63724;47.470;19.166;2023-04-25T07:11:13;3.60;;;2.67;;
75148;SDS011;63724;47.470;19.166;2023-04-25T07:14:15;2.63;;;2.13;;
75148;SDS011;63724;47.470;19.166;2023-04-25T07:17:18;4.40;;;2.87;;
75148;SDS011;63724;47.470;19.166;2023-04-25T07:20:20;2.97;;;2.40;;
75148;SDS011;63724;47.470;19.166;2023-04-25T07:23:23;2.95;;;2.75;;
75148;SDS011;63724;47.470;19.166;2023-04-25T07:26:25;5.65;;;2.80;;
75148;SDS011;63724;47.470;19.166;2023-04-25T07:29:51;4.82;;;2.80;;
75148;SDS011;63724;47.470;19.166;2023-04-25T07:32:56;5.53;;;3.03;;
75148;SDS011;63724;47.470;19.166;2023-04-25T07:35:59;5.63;;;2.80;;
75148;SDS011;63724;47.470;19.166;2023-04-25T07:39:02;3.10;;;2.58;;
75148;SDS011;63724;47.470;19.166;2023-04-25T07:42:05;4.30;;;2.67;;
75148;SDS011;63724;47.470;19.166;2023-04-25T07:45:11;3.78;;;2.67;;
75148;SDS011;63724;47.470;19.166;2023-04-25T07:48:17;4.73;;;3.10;;
75148;SDS011;63724;47.470;19.166;2023-04-25T07:51:26;4.37;;;2.60;;
75148;SDS011;63724;47.470;19.166;2023-04-25T07:54:33;5.30;;;2.85;;
75148;SDS011;63724;47.470;19.166;2023-04-25T07:57:43;4.15;;;3.28;;
75148;SDS011;63724;47.470;19.166;2023-04-25T08:00:46;6.80;;;2.90;;
75148;SDS011;63724;47.470;19.166;2023-04-25T08:04:08;3.57;;;2.53;;
75148;SDS011;63724;47.470;19.166;2023-04-25T08:07:34;3.43;;;2.60;;
75148;SDS011;63724;47.470;19.166;2023-04-25T08:10:40;3.80;;;2.90;;
75148;SDS011;63724;47.470;19.166;2023-04-25T08:13:43;4.30;;;2.60;;
75148;SDS011;63724;47.470;19.166;2023-04-25T08:16:46;3.80;;;2.50;;
75148;SDS011;63724;47.470;19.166;2023-04-25T08:19:50;17.47;;;8.07;;
75148;SDS011;63724;47.470;19.166;2023-04-25T08:22:59;4.63;;;3.20;;
75148;SDS011;63724;47.470;19.166;2023-04-25T08:26:19;3.45;;;2.42;;
75148;SDS011;63724;47.470;19.166;2023-04-25T08:29:24;3.35;;;2.47;;
75148;SDS011;63724;47.470;19.166;2023-04-25T08:32:28;6.43;;;1.85;;
75148;SDS011;63724;47.470;19.166;2023-04-25T08:35:50;5.27;;;1.80;;
75148;SDS011;63724;47.470;19.166;2023-04-25T08:38:53;6.70;;;1.50;;
75148;SDS011;63724;47.470;19.166;2023-04-25T08:41:56;4.78;;;2.30;;
75148;SDS011;63724;47.470;19.166;2023-04-25T08:44:59;3.92;;;2.03;;
75148;SDS011;63724;47.470;19.166;2023-04-25T08:48:11;2.67;;;1.85;;
75148;SDS011;63724;47.470;19.166;2023-04-25T08:51:21;1.60;;;1.50;;
75148;SDS011;63724;47.470;19.166;2023-04-25T08:54:27;2.03;;;1.20;;
75148;SDS011;63724;47.470;19.166;2023-04-25T08:57:38;1.73;;;1.63;;
75148;SDS011;63724;47.470;19.166;2023-04-25T09:00:45;1.75;;;1.65;;
75148;SDS011;63724;47.470;19.166;2023-04-25T09:03:49;2.17;;;1.77;;
75148;SDS011;63724;47.470;19.166;2023-04-25T09:06:52;2.23;;;2.03;;
75148;SDS011;63724;47.470;19.166;2023-04-25T09:09:55;5.10;;;1.83;;
75148;SDS011;63724;47.470;19.166;2023-04-25T09:16:54;1.85;;;1.67;;
75148;SDS011;63724;47.470;19.166;2023-04-25T09:20:13;3.67;;;1.63;;
75148;SDS011;63724;47.470;19.166;2023-04-25T09:23:17;4.17;;;1.70;;
75148;SDS011;63724;47.470;19.166;2023-04-25T09:26:21;12.70;;;4.00;;
75148;SDS011;63724;47.470;19.166;2023-04-25T09:29:31;3.58;;;2.30;;
75148;SDS011;63724;47.470;19.166;2023-04-25T09:32:35;2.88;;;2.13;;
75148;SDS011;63724;47.470;19.166;2023-04-25T09:35:47;1.98;;;1.63;;
75148;SDS011;63724;47.470;19.166;2023-04-25T09:39:12;3.27;;;2.20;;
75148;SDS011;63724;47.470;19.166;2023-04-25T09:42:26;3.50;;;1.80;;
75148;SDS011;63724;47.470;19.166;2023-04-25T09:45:31;3.17;;;2.33;;
75148;SDS011;63724;47.470;19.166;2023-04-25T09:48:34;1.50;;;1.40;;
75148;SDS011;63724;47.470;19.166;2023-04-25T09:51:38;1.52;;;1.20;;
75148;SDS011;63724;47.470;19.166;2023-04-25T09:54:41;1.43;;;1.33;;
75148;SDS011;63724;47.470;19.166;2023-04-25T09:57:48;2.40;;;1.00;;
75148;SDS011;63724;47.470;19.166;2023-04-25T10:00:53;0.88;;;0.80;;
75148;SDS011;63724;47.470;19.166;2023-04-25T10:04:09;1.55;;;0.93;;
75148;SDS011;63724;47.470;19.166;2023-04-25T10:07:39;1.30;;;0.90;;
75148;SDS011;63724;47.470;19.166;2023-04-25T10:10:47;1.20;;;1.10;;
75148;SDS011;63724;47.470;19.166;2023-04-25T10:13:52;1.60;;;0.70;;
75148;SDS011;63724;47.470;19.166;2023-04-25T10:17:02;1.00;;;0.77;;
75148;SDS011;63724;47.470;19.166;2023-04-25T10:20:40;0.90;;;0.85;;
75148;SDS011;63724;47.470;19.166;2023-04-25T10:23:50;1.45;;;0.80;;
75148;SDS011;63724;47.470;19.166;2023-04-25T10:26:53;1.43;;;0.60;;
75148;SDS011;63724;47.470;19.166;2023-04-25T10:33:18;2.95;;;0.60;;
75148;SDS011;63724;47.470;19.166;2023-04-25T10:46:23;1.03;;;0.70;;
75148;SDS011;63724;47.470;19.166;2023-04-25T10:52:40;4.22;;;0.50;;
75148;SDS011;63724;47.470;19.166;2023-04-25T10:55:49;0.45;;;0.22;;
75148;SDS011;63724;47.470;19.166;2023-04-25T10:58:52;0.40;;;0.30;;
75148;SDS011;63724;47.470;19.166;2023-04-25T11:02:11;7.50;;;0.93;;
75148;SDS011;63724;47.470;19.166;2023-04-25T11:08:59;2.00;;;0.30;;
75148;SDS011;63724;47.470;19.166;2023-04-25T11:12:02;2.47;;;0.40;;
75148;SDS011;63724;47.470;19.166;2023-04-25T11:15:06;2.90;;;0.30;;
75148;SDS011;63724;47.470;19.166;2023-04-25T11:18:09;1.67;;;0.40;;
75148;SDS011;63724;47.470;19.166;2023-04-25T11:21:11;1.40;;;0.60;;
75148;SDS011;63724;47.470;19.166;2023-04-25T11:24:18;0.80;;;0.50;;
75148;SDS011;63724;47.470;19.166;2023-04-25T11:27:21;1.60;;;0.40;;
75148;SDS011;63724;47.470;19.166;2023-04-25T11:30:24;1.25;;;0.43;;
75148;SDS011;63724;47.470;19.166;2023-04-25T11:33:27;1.47;;;0.30;;
75148;SDS011;63724;47.470;19.166;2023-04-25T11:36:29;3.30;;;0.30;;
75148;SDS011;63724;47.470;19.166;2023-04-25T11:39:32;1.23;;;0.20;;
75148;SDS011;63724;47.470;19.166;2023-04-25T11:42:39;1.33;;;0.32;;
75148;SDS011;63724;47.470;19.166;2023-04-25T11:45:46;1.55;;;0.30;;
75148;SDS011;63724;47.470;19.166;2023-04-25T11:48:50;3.03;;;0.33;;
75148;SDS011;63724;47.470;19.166;2023-04-25T11:51:53;5.13;;;0.50;;
75148;SDS011;63724;47.470;19.166;2023-04-25T11:54:55;10.43;;;0.50;;
75148;SDS011;63724;47.470;19.166;2023-04-25T11:57:59;0.45;;;0.20;;
75148;SDS011;63724;47.470;19.166;2023-04-25T12:01:02;0.40;;;0.30;;
75148;SDS011;63724;47.470;19.166;2023-04-25T12:07:14;1.47;;;0.20;;
75148;SDS011;63724;47.470;19.166;2023-04-25T12:10:17;6.53;;;0.38;;
75148;SDS011;63724;47.470;19.166;2023-04-25T12:13:24;2.00;;;0.40;;
75148;SDS011;63724;47.470;19.166;2023-04-25T12:16:27;0.38;;;0.38;;
75148;SDS011;63724;47.470;19.166;2023-04-25T12:19:33;1.50;;;0.40;;
75148;SDS011;63724;47.470;19.166;2023-04-25T12:22:36;2.27;;;0.20;;
75148;SDS011;63724;47.470;19.166;2023-04-25T12:28:44;1.35;;;0.08;;
75148;SDS011;63724;47.470;19.166;2023-04-25T12:31:49;0.68;;;0.40;;
75148;SDS011;63724;47.470;19.166;2023-04-25T12:34:53;1.97;;;0.30;;
75148;SDS011;63724;47.470;19.166;2023-04-25T12:37:55;0.37;;;0.30;;
75148;SDS011;63724;47.470;19.166;2023-04-25T12:40:58;0.20;;;0.20;;
75148;SDS011;63724;47.470;19.166;2023-04-25T12:44:00;0.82;;;0.40;;
75148;SDS011;63724;47.470;19.166;2023-04-25T12:47:03;0.95;;;0.40;;
75148;SDS011;63724;47.470;19.166;2023-04-25T12:50:06;2.17;;;0.40;;
75148;SDS011;63724;47.470;19.166;2023-04-25T12:53:09;4.53;;;0.50;;
75148;SDS011;63724;47.470;19.166;2023-04-25T12:56:11;1.77;;;0.30;;
75148;SDS011;63724;47.470;19.166;2023-04-25T12:59:14;2.75;;;0.30;;
75148;SDS011;63724;47.470;19.166;2023-04-25T13:02:16;0.88;;;0.40;;
75148;SDS011;63724;47.470;19.166;2023-04-25T13:05:18;1.90;;;0.50;;
75148;SDS011;63724;47.470;19.166;2023-04-25T13:08:21;0.90;;;0.43;;
75148;SDS011;63724;47.470;19.166;2023-04-25T13:11:23;0.25;;;0.22;;
75148;SDS011;63724;47.470;19.166;2023-04-25T13:14:25;1.63;;;0.30;;
75148;SDS011;63724;47.470;19.166;2023-04-25T13:17:28;2.78;;;0.50;;
75148;SDS011;63724;47.470;19.166;2023-04-25T13:20:30;2.97;;;0.33;;
75148;SDS011;63724;47.470;19.166;2023-04-25T13:23:33;0.40;;;0.40;;
75148;SDS011;63724;47.470;19.166;2023-04-25T13:26:35;1.08;;;0.32;;
75148;SDS011;63724;47.470;19.166;2023-04-25T13:29:38;2.72;;;0.38;;
75148;SDS011;63724;47.470;19.166;2023-04-25T13:32:42;2.47;;;0.40;;
75148;SDS011;63724;47.470;19.166;2023-04-25T13:35:44;1.63;;;0.40;;
75148;SDS011;63724;47.470;19.166;2023-04-25T13:38:55;1.00;;;0.40;;
75148;SDS011;63724;47.470;19.166;2023-04-25T13:41:58;4.65;;;0.63;;
75148;SDS011;63724;47.470;19.166;2023-04-25T13:45:00;1.98;;;0.70;;
75148;SDS011;63724;47.470;19.166;2023-04-25T13:48:03;4.78;;;0.57;;
75148;SDS011;63724;47.470;19.166;2023-04-25T13:51:05;0.93;;;0.80;;
75148;SDS011;63724;47.470;19.166;2023-04-25T13:54:08;2.70;;;0.50;;
75148;SDS011;63724;47.470;19.166;2023-04-25T13:57:10;1.63;;;0.70;;
75148;SDS011;63724;47.470;19.166;2023-04-25T14:00:13;3.35;;;0.50;;
75148;SDS011;63724;47.470;19.166;2023-04-25T14:03:16;11.73;;;0.80;;
75148;SDS011;63724;47.470;19.166;2023-04-25T14:06:19;3.33;;;0.43;;
75148;SDS011;63724;47.470;19.166;2023-04-25T14:09:24;11.30;;;0.80;;
75148;SDS011;63724;47.470;19.166;2023-04-25T14:12:29;8.27;;;0.68;;
75148;SDS011;63724;47.470;19.166;2023-04-25T14:15:34;4.20;;;0.90;;
75148;SDS011;63724;47.470;19.166;2023-04-25T14:18:36;5.05;;;0.55;;
75148;SDS011;63724;47.470;19.166;2023-04-25T14:21:39;1.63;;;0.53;;
75148;SDS011;63724;47.470;19.166;2023-04-25T14:24:43;1.67;;;0.67;;
75148;SDS011;63724;47.470;19.166;2023-04-25T14:27:46;5.45;;;0.57;;
75148;SDS011;63724;47.470;19.166;2023-04-25T14:30:51;2.17;;;0.60;;
75148;SDS011;63724;47.470;19.166;2023-04-25T14:33:54;5.78;;;0.82;;
75148;SDS011;63724;47.470;19.166;2023-04-25T14:37:00;0.93;;;0.77;;
75148;SDS011;63724;47.470;19.166;2023-04-25T14:40:02;4.93;;;0.50;;
75148;SDS011;63724;47.470;19.166;2023-04-25T14:43:06;1.13;;;0.68;;
75148;SDS011;63724;47.470;19.166;2023-04-25T14:46:08;1.20;;;0.68;;
75148;SDS011;63724;47.470;19.166;2023-04-25T14:49:11;3.92;;;0.73;;
75148;SDS011;63724;47.470;19.166;2023-04-25T14:52:13;1.53;;;0.60;;
75148;SDS011;63724;47.470;19.166;2023-04-25T14:55:15;1.13;;;0.67;;
75148;SDS011;63724;47.470;19.166;2023-04-25T14:58:18;0.47;;;0.40;;
75148;SDS011;63724;47.470;19.166;2023-04-25T15:01:21;9.02;;;0.88;;
75148;SDS011;63724;47.470;19.166;2023-04-25T15:04:24;2.97;;;1.02;;
75148;SDS011;63724;47.470;19.166;2023-04-25T15:07:26;4.50;;;1.10;;
75148;SDS011;63724;47.470;19.166;2023-04-25T15:10:28;1.60;;;0.70;;
75148;SDS011;63724;47.470;19.166;2023-04-25T15:13:31;2.42;;;0.70;;
75148;SDS011;63724;47.470;19.166;2023-04-25T15:16:33;2.28;;;0.60;;
75148;SDS011;63724;47.470;19.166;2023-04-25T15:19:36;3.78;;;0.80;;
75148;SDS011;63724;47.470;19.166;2023-04-25T15:22:39;9.03;;;0.93;;
75148;SDS011;63724;47.470;19.166;2023-04-25T15:25:43;2.10;;;0.60;;
75148;SDS011;63724;47.470;19.166;2023-04-25T15:28:45;4.75;;;1.02;;
75148;SDS011;63724;47.470;19.166;2023-04-25T15:31:48;2.40;;;0.70;;
75148;SDS011;63724;47.470;19.166;2023-04-25T15:34:50;3.72;;;0.63;;
75148;SDS011;63724;47.470;19.166;2023-04-25T15:37:53;3.47;;;0.80;;
75148;SDS011;63724;47.470;19.166;2023-04-25T15:40:55;1.33;;;0.60;;
75148;SDS011;63724;47.470;19.166;2023-04-25T15:43:58;2.10;;;0.52;;
75148;SDS011;63724;47.470;19.166;2023-04-25T15:47:01;3.03;;;0.70;;
75148;SDS011;63724;47.470;19.166;2023-04-25T15:50:04;0.95;;;0.60;;
75148;SDS011;63724;47.470;19.166;2023-04-25T15:53:09;1.77;;;0.70;;
75148;SDS011;63724;47.470;19.166;2023-04-25T15:56:12;0.73;;;0.60;;
75148;SDS011;63724;47.470;19.166;2023-04-25T15:59:14;3.50;;;0.90;;
75148;SDS011;63724;47.470;19.166;2023-04-25T16:02:17;3.75;;;0.70;;
75148;SDS011;63724;47.470;19.166;2023-04-25T16:05:19;0.98;;;0.80;;
75148;SDS011;63724;47.470;19.166;2023-04-25T16:08:22;0.90;;;0.70;;
75148;SDS011;63724;47.470;19.166;2023-04-25T16:11:24;5.27;;;1.00;;
75148;SDS011;63724;47.470;19.166;2023-04-25T16:14:27;1.73;;;1.10;;
75148;SDS011;63724;47.470;19.166;2023-04-25T16:17:29;4.30;;;1.45;;
75148;SDS011;63724;47.470;19.166;2023-04-25T16:20:34;5.10;;;1.30;;
75148;SDS011;63724;47.470;19.166;2023-04-25T16:23:36;3.33;;;1.37;;
75148;SDS011;63724;47.470;19.166;2023-04-25T16:26:39;2.43;;;1.47;;
75148;SDS011;63724;47.470;19.166;2023-04-25T16:29:44;2.45;;;1.50;;
75148;SDS011;63724;47.470;19.166;2023-04-25T16:32:47;2.42;;;1.73;;
75148;SDS011;63724;47.470;19.166;2023-04-25T16:35:49;2.10;;;1.35;;
75148;SDS011;63724;47.470;19.166;2023-04-25T16:38:53;3.50;;;1.60;;
75148;SDS011;63724;47.470;19.166;2023-04-25T16:41:55;3.10;;;1.60;;
75148;SDS011;63724;47.470;19.166;2023-04-25T16:44:58;1.48;;;1.38;;
75148;SDS011;63724;47.470;19.166;2023-04-25T16:48:00;3.45;;;1.98;;
75148;SDS011;63724;47.470;19.166;2023-04-25T16:51:03;2.90;;;1.30;;
75148;SDS011;63724;47.470;19.166;2023-04-25T16:54:05;3.83;;;1.70;;
75148;SDS011;63724;47.470;19.166;2023-04-25T16:57:07;2.77;;;1.57;;
75148;SDS011;63724;47.470;19.166;2023-04-25T17:00:12;1.73;;;1.40;;
75148;SDS011;63724;47.470;19.166;2023-04-25T17:03:15;2.92;;;2.33;;
75148;SDS011;63724;47.470;19.166;2023-04-25T17:06:18;3.28;;;1.90;;
75148;SDS011;63724;47.470;19.166;2023-04-25T17:09:20;2.90;;;1.93;;
75148;SDS011;63724;47.470;19.166;2023-04-25T17:12:23;2.83;;;2.00;;
75148;SDS011;63724;47.470;19.166;2023-04-25T17:15:25;2.33;;;1.70;;
75148;SDS011;63724;47.470;19.166;2023-04-25T17:18:28;9.00;;;4.65;;
75148;SDS011;63724;47.470;19.166;2023-04-25T17:21:30;2.92;;;1.95;;
75148;SDS011;63724;47.470;19.166;2023-04-25T17:24:32;2.93;;;1.90;;
75148;SDS011;63724;47.470;19.166;2023-04-25T17:27:35;4.77;;;2.03;;
75148;SDS011;63724;47.470;19.166;2023-04-25T17:30:38;6.57;;;4.05;;
75148;SDS011;63724;47.470;19.166;2023-04-25T17:33:40;7.25;;;2.00;;
75148;SDS011;63724;47.470;19.166;2023-04-25T17:36:44;2.47;;;1.80;;
75148;SDS011;63724;47.470;19.166;2023-04-25T17:39:46;3.50;;;2.20;;
75148;SDS011;63724;47.470;19.166;2023-04-25T17:42:49;2.77;;;1.70;;
75148;SDS011;63724;47.470;19.166;2023-04-25T17:45:52;4.45;;;2.50;;
75148;SDS011;63724;47.470;19.166;2023-04-25T17:48:57;2.70;;;1.80;;
75148;SDS011;63724;47.470;19.166;2023-04-25T17:52:01;1.85;;;1.63;;
75148;SDS011;63724;47.470;19.166;2023-04-25T17:55:07;2.97;;;1.60;;
75148;SDS011;63724;47.470;19.166;2023-04-25T17:58:10;1.97;;;1.70;;
75148;SDS011;63724;47.470;19.166;2023-04-25T18:01:12;2.13;;;1.40;;
75148;SDS011;63724;47.470;19.166;2023-04-25T18:04:15;3.50;;;1.60;;
75148;SDS011;63724;47.470;19.166;2023-04-25T18:07:18;2.22;;;1.55;;
75148;SDS011;63724;47.470;19.166;2023-04-25T18:10:20;3.00;;;1.60;;
75148;SDS011;63724;47.470;19.166;2023-04-25T18:13:24;1.80;;;1.43;;
75148;SDS011;63724;47.470;19.166;2023-04-25T18:16:26;2.83;;;1.65;;
75148;SDS011;63724;47.470;19.166;2023-04-25T18:19:30;1.75;;;1.50;;
75148;SDS011;63724;47.470;19.166;2023-04-25T18:22:33;3.15;;;1.52;;
75148;SDS011;63724;47.470;19.166;2023-04-25T18:25:35;2.13;;;1.77;;
75148;SDS011;63724;47.470;19.166;2023-04-25T18:28:37;2.80;;;1.80;;
75148;SDS011;63724;47.470;19.166;2023-04-25T18:31:40;4.18;;;2.10;;
75148;SDS011;63724;47.470;19.166;2023-04-25T18:34:45;2.88;;;2.00;;
75148;SDS011;63724;47.470;19.166;2023-04-25T18:37:50;5.93;;;2.10;;
75148;SDS011;63724;47.470;19.166;2023-04-25T18:40:55;3.97;;;2.47;;
75148;SDS011;63724;47.470;19.166;2023-04-25T18:44:20;3.63;;;2.70;;
75148;SDS011;63724;47.470;19.166;2023-04-25T18:47:23;2.78;;;2.15;;
75148;SDS011;63724;47.470;19.166;2023-04-25T18:50:25;4.97;;;2.47;;